Time;durP1;ratioP1;P1;durP2;ratioP2;P2;SDS_P1;SDS_P2;PMS_P1;PMS_P2;Temp;Humidity;BMP_temperature;BMP_pressure;BME280_temperature;BME280_humidity;BME280_pressure;Samples;Min_cycle;Max_cycle;Signal;HPM_P1;HPM_P2
2022/01/04 00:01:20;;;;;;;8.13;3.20;;;;;;;6.96;84.59;99027.19;4864138;29;20084;-87
2022/01/04 00:03:54;;;;;;;7.03;3.63;;;;;;;6.43;84.46;98934.00;4864004;29;20049;-86
2022/01/04 00:06:28;;;;;;;6.80;3.55;;;;;;;7.41;84.65;99088.19;4863394;29;20053;-86
2022/01/04 00:09:01;;;;;;;8.85;4.10;;;;;;;7.11;84.68;99032.28;4862564;29;20457;-87
2022/01/04 00:11:45;;;;;;;7.93;4.30;;;;;;;6.77;85.03;98974.72;4863574;29;20163;-86
2022/01/04 00:14:19;;;;;;;7.10;3.90;;;;;;;7.23;84.98;99047.53;4861952;29;20119;-86
2022/01/04 00:16:55;;;;;;;5.97;3.58;;;;;;;6.94;85.01;99003.47;4863239;29;20052;-86
2022/01/04 00:19:28;;;;;;;8.30;4.22;;;;;;;7.05;84.91;99033.13;4863366;29;20060;-86
2022/01/04 00:22:01;;;;;;;9.05;4.32;;;;;;;6.44;84.83;98925.59;4863869;29;20050;-87
2022/01/04 00:24:34;;;;;;;8.45;4.60;;;;;;;6.33;84.87;98927.25;4846851;29;20052;-86
2022/01/04 00:27:09;;;;;;;7.75;4.55;;;;;;;6.80;85.31;99005.13;4862118;29;20137;-86
2022/01/04 00:29:42;;;;;;;8.65;4.22;;;;;;;6.94;85.33;99023.75;4862022;29;20049;-86
2022/01/04 00:32:13;;;;;;;8.70;5.07;;;;;;;7.01;85.52;99025.47;4847210;29;20072;-86
2022/01/04 00:34:47;;;;;;;9.20;5.32;;;;;;;6.97;85.33;99028.84;4863008;29;20050;-86
2022/01/04 00:37:21;;;;;;;9.88;5.70;;;;;;;7.19;85.48;99055.97;4863117;29;20412;-88
2022/01/04 00:39:53;;;;;;;10.48;5.60;;;;;;;6.65;85.10;98961.13;4862256;29;20053;-86
2022/01/04 00:42:23;;;;;;;12.05;5.90;;;;;;;6.54;85.34;98945.06;4861711;29;20564;-87
2022/01/04 00:44:54;;;;;;;12.20;6.53;;;;;;;7.29;85.55;99067.84;4862994;29;20046;-86
2022/01/04 00:47:40;;;;;;;9.48;5.40;;;;;;;6.86;85.31;99007.69;4862434;29;20068;-87
2022/01/04 00:50:09;;;;;;;9.80;5.55;;;;;;;6.50;85.32;98945.84;4864853;29;20056;-88
2022/01/04 00:52:39;;;;;;;10.98;5.30;;;;;;;6.84;85.76;99017.00;4849508;29;20136;-87
2022/01/04 00:55:19;;;;;;;11.30;5.07;;;;;;;5.96;85.66;98864.59;4881349;29;20043;-86
2022/01/04 00:57:49;;;;;;;10.27;5.57;;;;;;;6.63;85.48;98985.63;4865022;29;20088;-87
2022/01/04 01:00:22;;;;;;;10.10;6.00;;;;;;;6.70;85.98;98974.66;4881145;29;20059;-86
2022/01/04 01:02:53;;;;;;;11.55;6.45;;;;;;;6.61;85.65;98956.91;4864804;29;20061;-87
2022/01/04 01:05:27;;;;;;;10.93;6.07;;;;;;;6.83;85.96;98995.00;4850339;29;20495;-86
2022/01/04 01:07:59;;;;;;;11.50;6.30;;;;;;;6.08;85.62;98867.16;4881260;29;20053;-87
2022/01/04 01:13:13;;;;;;;11.75;6.90;;;;;;;5.97;86.05;98863.75;4880985;29;20448;-87
2022/01/04 01:15:48;;;;;;;13.20;7.68;;;;;;;7.04;85.97;99038.16;4849757;29;20148;-87
2022/01/04 01:18:23;;;;;;;13.45;7.13;;;;;;;7.03;86.08;99028.88;4880885;29;20077;-87
2022/01/04 01:20:57;;;;;;;12.88;6.97;;;;;;;6.60;85.69;98961.94;4849344;29;20049;-94
2022/01/04 01:23:27;;;;;;;11.77;7.20;;;;;;;6.80;85.79;98997.50;4880858;29;20049;-92
2022/01/04 01:26:01;;;;;;;13.40;7.85;;;;;;;6.41;86.14;98935.69;4863370;29;20049;-87
2022/01/04 01:28:33;;;;;;;15.90;7.75;;;;;;;6.69;86.12;98982.28;4835479;29;20052;-89
2022/01/04 01:31:13;;;;;;;13.25;7.43;;;;;;;5.87;85.71;98840.09;4880938;29;20136;-85
2022/01/04 01:33:44;;;;;;;15.25;8.30;;;;;;;6.41;86.11;98935.69;4834903;29;20057;-88
2022/01/04 01:36:18;;;;;;;;;;;;;;;6.84;85.93;98992.44;4880966;29;20053;-87
2022/01/04 01:38:49;;;;;;;15.85;8.80;;;;;;;6.72;86.03;98967.06;4863601;29;19946;-87
2022/01/04 01:41:18;;;;;;;15.32;9.07;;;;;;;6.83;86.07;98980.63;4864014;29;20049;-88
2022/01/04 01:43:48;;;;;;;17.63;9.90;;;;;;;5.88;86.36;98833.31;4880535;29;20048;-86
2022/01/04 01:46:23;;;;;;;18.25;9.23;;;;;;;6.06;86.41;98843.53;4880470;29;20053;-87
2022/01/04 01:48:56;;;;;;;16.75;9.57;;;;;;;6.59;85.98;98923.09;4860711;29;20057;-86
2022/01/04 01:51:31;;;;;;;15.73;9.27;;;;;;;6.15;86.16;98841.03;4862380;29;20480;-87
2022/01/04 01:54:02;;;;;;;13.57;8.13;;;;;;;5.97;86.24;98830.84;4861746;29;20045;-87
2022/01/04 01:56:35;;;;;;;17.00;9.70;;;;;;;6.74;86.26;98963.69;4861065;29;20057;-87
2022/01/04 01:59:06;;;;;;;17.25;10.18;;;;;;;6.60;86.40;98946.75;4860458;29;20140;-87
2022/01/04 02:01:38;;;;;;;16.95;9.98;;;;;;;6.84;86.23;98976.41;4861005;29;20093;-86
2022/01/04 02:04:12;;;;;;;19.45;10.68;;;;;;;6.13;86.16;98837.66;4875768;29;20056;-86
2022/01/04 02:06:42;;;;;;;18.83;10.85;;;;;;;6.24;86.08;98861.31;4846113;29;20072;-87
2022/01/04 02:09:14;;;;;;;16.08;10.43;;;;;;;6.47;86.11;98910.38;4876082;29;20381;-86
2022/01/04 02:11:47;;;;;;;18.98;10.52;;;;;;;6.74;86.19;98943.41;4861538;29;20059;-88
2022/01/04 02:14:21;;;;;;;19.10;10.82;;;;;;;6.32;86.15;98859.66;4860580;29;20052;-87
2022/01/04 02:16:53;;;;;;;18.42;10.43;;;;;;;6.21;85.89;98843.59;4860474;29;20049;-86
2022/01/04 02:19:23;;;;;;;18.55;11.00;;;;;;;6.72;85.98;98909.59;4861500;29;20076;-86
2022/01/04 02:22:00;;;;;;;19.38;11.00;;;;;;;5.83;85.78;98776.75;4861250;29;20143;-86
2022/01/04 02:24:34;;;;;;;21.15;10.88;;;;;;;6.19;86.47;98852.84;4845249;29;20106;-86
2022/01/04 02:27:06;;;;;;;21.05;11.00;;;;;;;6.03;85.37;98796.25;4860702;29;20041;-86
2022/01/04 02:29:40;;;;;;;17.67;10.25;;;;;;;5.74;85.57;98752.22;4860617;29;20067;-87
2022/01/04 02:32:14;;;;;;;23.02;10.43;;;;;;;6.78;85.93;98935.81;4876210;29;20050;-87
2022/01/04 02:34:50;;;;;;;19.70;10.55;;;;;;;6.77;85.89;98929.06;4844829;29;20049;-87
2022/01/04 02:37:27;;;;;;;23.35;11.95;;;;;;;6.75;85.66;98922.28;4846067;29;20049;-87
2022/01/04 02:40:01;;;;;;;19.70;11.32;;;;;;;6.76;85.87;98913.00;4833912;29;20050;-88
2022/01/04 02:42:32;;;;;;;22.75;11.82;;;;;;;6.41;85.54;98854.59;4863953;29;20053;-86
2022/01/04 02:45:05;;;;;;;18.60;11.35;;;;;;;6.70;85.92;98893.53;4864257;29;20404;-87
2022/01/04 02:47:36;;;;;;;20.95;10.57;;;;;;;5.75;85.17;98717.63;4864949;29;20046;-86
2022/01/04 02:50:09;;;;;;;16.10;9.98;;;;;;;6.64;85.34;98864.81;4883503;29;20045;-86
2022/01/04 02:52:44;;;;;;;21.10;10.90;;;;;;;6.77;85.36;98889.31;4868221;29;20093;-87
2022/01/04 02:55:18;;;;;;;20.13;11.50;;;;;;;5.94;85.43;98748.13;4867213;29;20499;-87
2022/01/04 02:57:52;;;;;;;17.83;10.57;;;;;;;6.82;85.55;98889.31;4883338;29;20049;-87
2022/01/04 03:00:26;;;;;;;17.42;9.93;;;;;;;6.43;85.78;98812.38;4883367;29;20531;-88
2022/01/04 03:02:57;;;;;;;17.27;10.02;;;;;;;6.73;85.48;98873.28;4867194;29;20091;-87
2022/01/04 03:05:30;;;;;;;21.30;10.88;;;;;;;5.95;86.13;98754.03;4883475;29;20049;-87
2022/01/04 03:08:02;;;;;;;16.80;9.80;;;;;;;5.85;85.83;98749.78;4883298;29;20508;-87
2022/01/04 03:10:36;;;;;;;17.90;11.02;;;;;;;6.14;85.63;98793.75;4883646;29;20068;-87
2022/01/04 03:13:07;;;;;;;18.17;11.15;;;;;;;6.16;85.04;98801.34;4884080;29;20049;-87
2022/01/04 03:18:28;;;;;;;20.25;11.40;;;;;;;5.61;85.77;98696.50;4882722;29;20121;-86
2022/01/04 03:21:00;;;;;;;20.98;11.55;;;;;;;6.43;85.58;98840.25;4883062;29;20049;-87
2022/01/04 03:23:35;;;;;;;20.83;11.48;;;;;;;6.54;85.78;98846.19;4882858;29;20052;-87
2022/01/04 03:26:05;;;;;;;19.67;11.98;;;;;;;6.08;85.46;98758.25;4866274;29;20055;-86
2022/01/04 03:28:40;;;;;;;22.25;12.43;;;;;;;6.50;85.39;98836.88;4882821;29;20488;-86
2022/01/04 03:31:14;;;;;;;18.10;10.40;;;;;;;5.78;85.92;98717.66;4866440;29;20137;-86
2022/01/04 03:33:45;;;;;;;21.75;11.32;;;;;;;5.97;85.80;98739.69;4882662;29;20049;-86
2022/01/04 03:36:20;;;;;;;21.35;11.15;;;;;;;6.67;85.71;98847.88;4822157;29;20045;-87
2022/01/04 03:38:58;;;;;;;19.65;11.35;;;;;;;6.80;86.29;98858.03;4882575;29;20049;-86
2022/01/04 03:41:33;;;;;;;20.85;11.30;;;;;;;6.77;85.45;98856.34;4850490;29;20401;-87
2022/01/04 03:44:03;;;;;;;20.10;10.95;;;;;;;6.08;85.60;98738.00;4851003;29;20168;-87
2022/01/04 03:46:33;;;;;;;20.10;11.23;;;;;;;6.12;85.81;98734.63;4882655;29;20456;-86
2022/01/04 03:49:07;;;;;;;21.35;12.25;;;;;;;6.55;86.17;98809.84;4861690;29;20429;-87
2022/01/04 03:51:37;;;;;;;20.88;12.18;;;;;;;5.79;85.80;98674.63;4863673;29;20053;-87
2022/01/04 03:54:10;;;;;;;19.70;11.25;;;;;;;6.48;85.75;98775.22;4862859;29;20050;-86
2022/01/04 03:56:44;;;;;;;18.73;11.02;;;;;;;6.77;86.50;98817.50;4862709;29;20497;-86
2022/01/04 03:59:18;;;;;;;21.38;11.25;;;;;;;6.55;86.18;98787.03;4863823;29;20177;-86
2022/01/04 04:01:49;;;;;;;17.50;11.18;;;;;;;6.82;86.12;98828.47;4863475;29;20572;-86
2022/01/04 04:04:23;;;;;;;22.60;11.55;;;;;;;6.62;86.04;98801.41;4848096;29;20568;-86
2022/01/04 04:06:54;;;;;;;20.40;11.20;;;;;;;6.87;86.03;98824.25;4863604;29;20128;-86
2022/01/04 04:09:26;;;;;;;21.13;11.30;;;;;;;6.52;85.83;98756.66;4863400;29;20053;-85
2022/01/04 04:11:57;;;;;;;19.13;10.90;;;;;;;6.06;85.81;98661.19;4863564;29;20102;-86
2022/01/04 04:14:29;;;;;;;18.45;10.75;;;;;;;6.94;86.40;98795.50;4863196;29;20132;-86
2022/01/04 04:17:16;;;;;;;18.55;10.40;;;;;;;6.56;85.72;98743.13;4863200;29;20053;-86
2022/01/04 04:19:49;;;;;;;19.35;11.07;;;;;;;6.84;86.00;98793.84;4846654;29;20169;-86
2022/01/04 04:22:23;;;;;;;20.25;10.65;;;;;;;6.78;85.94;98783.66;4847727;29;20054;-95
2022/01/04 04:24:55;;;;;;;19.80;10.70;;;;;;;6.32;86.18;98721.97;4864054;29;20041;-91
2022/01/04 04:27:27;;;;;;;16.60;9.95;;;;;;;6.60;86.22;98784.50;4863402;29;20057;-88
2022/01/04 04:29:58;;;;;;;20.17;10.35;;;;;;;6.58;86.60;98765.91;4863807;29;20132;-93
2022/01/04 04:32:34;;;;;;;20.52;10.73;;;;;;;5.43;86.26;98568.25;4864860;29;20054;-94
2022/01/04 04:35:06;;;;;;;19.85;10.65;;;;;;;5.98;86.23;98678.03;4863992;29;20088;-94
2022/01/04 04:37:41;;;;;;;18.13;10.75;;;;;;;6.52;86.25;98774.38;4878010;29;20045;-94
2022/01/04 04:40:18;;;;;;;19.60;10.48;;;;;;;5.39;86.43;98602.84;4865266;29;20049;-95
2022/01/04 04:42:53;;;;;;;20.85;11.05;;;;;;;5.42;87.00;98623.06;4863061;29;20106;-94
2022/01/04 04:45:26;;;;;;;16.00;9.88;;;;;;;6.13;86.79;98749.00;4832772;29;20049;-94
2022/01/04 04:47:59;;;;;;;19.35;10.48;;;;;;;5.73;87.14;98664.50;4865191;29;20048;-93
2022/01/04 04:50:29;;;;;;;16.45;10.32;;;;;;;6.49;86.76;98784.50;4882012;29;20069;-91
2022/01/04 04:53:00;;;;;;;16.92;10.00;;;;;;;5.84;86.51;98678.03;4864946;29;20053;-94
2022/01/04 04:55:38;;;;;;;17.70;10.32;;;;;;;6.16;87.55;98736.34;4881628;29;20060;-92
2022/01/04 04:58:12;;;;;;;17.33;10.70;;;;;;;6.40;87.26;98779.44;4881796;29;20055;-93
2022/01/04 05:00:50;;;;;;;17.95;10.95;;;;;;;5.78;87.41;98672.09;4849688;29;20571;-92
2022/01/04 05:03:21;;;;;;;21.20;11.63;;;;;;;6.14;87.24;98716.91;4849964;29;20452;-93
2022/01/04 05:05:51;;;;;;;23.35;12.15;;;;;;;6.27;87.05;98744.78;4865039;29;20073;-93
2022/01/04 05:08:29;;;;;;;17.63;10.38;;;;;;;5.38;87.44;98591.03;4881327;29;20052;-93
2022/01/04 05:11:23;;;;;;;19.38;11.05;;;;;;;5.84;87.88;98677.16;4881254;29;20047;-94
2022/01/04 05:13:52;;;;;;;19.30;11.90;;;;;;;5.68;87.89;98640.00;4881470;29;20053;-93
2022/01/04 05:16:26;;;;;;;19.90;11.75;;;;;;;5.82;88.06;98653.53;4865132;29;20041;-93
2022/01/04 05:18:57;;;;;;;19.20;10.98;;;;;;;6.08;87.89;98697.47;4849725;29;20060;-93
2022/01/04 05:21:27;;;;;;;19.15;10.90;;;;;;;5.36;87.89;98571.63;4880960;29;20136;-92
2022/01/04 05:24:01;;;;;;;18.75;11.38;;;;;;;5.64;88.04;98602.91;4881044;29;20492;-93
2022/01/04 05:26:34;;;;;;;22.95;12.00;;;;;;;5.58;88.00;98596.13;4881016;29;20136;-93
2022/01/04 05:29:06;;;;;;;18.05;10.90;;;;;;;5.68;87.79;98629.88;4880962;29;20511;-92
2022/01/04 05:31:40;;;;;;;18.10;10.30;;;;;;;6.37;87.79;98731.28;4880956;29;20053;-93
2022/01/04 05:34:13;;;;;;;20.95;10.80;;;;;;;6.05;87.77;98689.88;4880990;29;20508;-91
2022/01/04 05:36:43;;;;;;;20.30;11.43;;;;;;;5.84;88.09;98655.25;4849064;29;20057;-91
2022/01/04 05:39:13;;;;;;;19.88;11.55;;;;;;;5.97;87.87;98668.78;4880618;29;20053;-92
2022/01/04 05:41:56;;;;;;;20.45;12.35;;;;;;;6.33;88.11;98719.47;4880836;29;20052;-91
2022/01/04 05:44:30;;;;;;;25.00;11.73;;;;;;;6.32;88.22;98712.69;4835117;29;20056;-92
2022/01/04 05:47:00;;;;;;;20.85;11.27;;;;;;;5.68;88.12;98615.56;4864228;29;20080;-92
2022/01/04 05:49:31;;;;;;;23.48;12.40;;;;;;;5.32;88.12;98544.66;4881053;29;20075;-91
2022/01/04 05:52:04;;;;;;;18.42;10.88;;;;;;;5.57;88.22;98591.03;4864445;29;20053;-92
2022/01/04 05:54:36;;;;;;;19.98;11.27;;;;;;;6.04;88.55;98655.28;4880518;29;20055;-91
2022/01/04 05:57:27;;;;;;;20.05;11.95;;;;;;;5.57;88.39;98570.78;4880601;29;20045;-92
2022/01/04 05:59:58;;;;;;;20.33;11.55;;;;;;;6.35;87.94;98687.38;4864170;29;20045;-92
2022/01/04 06:02:32;;;;;;;22.67;12.27;;;;;;;6.00;88.02;98629.09;4881290;29;20053;-91
2022/01/04 06:05:19;;;;;;;18.77;11.00;;;;;;;5.93;88.40;98626.56;4880827;29;20041;-91
2022/01/04 06:07:50;;;;;;;21.55;11.48;;;;;;;5.33;88.40;98514.28;4880384;29;20056;-92
2022/01/04 06:10:21;;;;;;;20.55;11.38;;;;;;;5.30;88.04;98506.69;4864101;29;20053;-92
2022/01/04 06:15:38;;;;;;;22.13;12.05;;;;;;;5.42;88.57;98521.88;4863745;29;20045;-92
2022/01/04 06:18:10;;;;;;;20.13;11.68;;;;;;;5.64;88.19;98559.88;4863935;29;20053;-92
2022/01/04 06:20:40;;;;;;;22.17;11.82;;;;;;;5.59;88.17;98546.38;4880192;29;20053;-91
2022/01/04 06:23:11;;;;;;;23.15;12.50;;;;;;;5.46;88.35;98502.50;4864080;29;20053;-92
2022/01/04 06:25:46;;;;;;;21.73;12.35;;;;;;;6.05;88.64;98596.16;4863943;29;20049;-92
2022/01/04 06:28:20;;;;;;;26.00;13.55;;;;;;;6.50;88.53;98676.38;4881061;29;20140;-92
2022/01/04 06:30:54;;;;;;;24.65;13.45;;;;;;;5.55;88.29;98512.63;4848959;29;20053;-92
2022/01/04 06:33:27;;;;;;;21.10;12.23;;;;;;;6.00;88.29;98587.72;4863843;29;20559;-91
2022/01/04 06:35:57;;;;;;;20.98;11.82;;;;;;;6.22;88.34;98635.00;4879077;29;20053;-91
2022/01/04 06:38:28;;;;;;;21.60;11.80;;;;;;;5.68;88.23;98538.78;4863800;29;20053;-92
2022/01/04 06:41:04;;;;;;;21.40;11.63;;;;;;;5.63;88.88;98532.88;4863847;29;20057;-91
2022/01/04 06:43:38;;;;;;;21.40;12.32;;;;;;;6.38;88.16;98648.53;4880818;29;20056;-91
2022/01/04 06:46:11;;;;;;;19.58;11.70;;;;;;;6.23;88.86;98620.66;4880327;29;20461;-91
2022/01/04 06:48:41;;;;;;;21.73;12.45;;;;;;;5.60;88.00;98510.06;4880124;29;20072;-89
2022/01/04 06:51:14;;;;;;;19.95;11.07;;;;;;;6.32;88.19;98631.63;4880118;29;20053;-92
2022/01/04 06:53:46;;;;;;;19.45;11.10;;;;;;;6.10;88.48;98607.16;4880093;29;20041;-93
2022/01/04 06:56:20;;;;;;;20.40;12.00;;;;;;;5.41;88.70;98499.97;4863706;29;20132;-91
2022/01/04 06:58:58;;;;;;;22.75;12.88;;;;;;;6.30;88.97;98643.47;4848240;29;20064;-92
2022/01/04 07:01:29;;;;;;;26.15;13.55;;;;;;;5.47;88.71;98483.09;4863864;29;20049;-92
2022/01/04 07:04:00;;;;;;;28.38;14.40;;;;;;;6.24;89.03;98602.09;4864173;29;20057;-92
2022/01/04 07:06:30;;;;;;;26.50;14.27;;;;;;;6.07;88.20;98574.22;4863830;29;20049;-92
2022/01/04 07:09:07;;;;;;;25.35;15.02;;;;;;;5.84;88.65;98530.31;4880183;29;20058;-91
2022/01/04 07:11:41;;;;;;;25.15;13.38;;;;;;;6.05;88.69;98550.59;4880556;29;20131;-91
2022/01/04 07:14:13;;;;;;;24.15;13.43;;;;;;;6.60;88.65;98638.34;4880641;29;20056;-90
2022/01/04 07:16:44;;;;;;;27.20;12.85;;;;;;;5.86;89.26;98495.75;4879841;29;20053;-92
2022/01/04 07:19:17;;;;;;;23.77;13.23;;;;;;;6.37;89.09;98579.25;4863315;29;20441;-91
2022/01/04 07:21:47;;;;;;;26.35;13.73;;;;;;;6.10;88.89;98508.38;4879899;29;20500;-91
2022/01/04 07:24:17;;;;;;;21.20;12.48;;;;;;;5.83;88.74;98468.72;4881578;29;20060;-91
2022/01/04 07:26:50;;;;;;;23.70;13.38;;;;;;;5.91;88.43;98466.22;4866955;29;20049;-92
2022/01/04 07:29:40;;;;;;;23.25;13.07;;;;;;;6.44;88.14;98542.91;4866882;29;20137;-92
2022/01/04 07:32:24;;;;;;;22.45;12.02;;;;;;;5.96;88.39;98449.31;4883606;29;20056;-91
2022/01/04 07:34:58;;;;;;;24.40;12.65;;;;;;;6.89;88.66;98604.44;4866699;29;20049;-92
2022/01/04 07:37:35;;;;;;;25.58;12.23;;;;;;;6.89;88.83;98589.22;4883861;29;20523;-93
2022/01/04 07:40:08;;;;;;;25.80;12.05;;;;;;;6.86;88.80;98584.19;4865339;29;20056;-90
2022/01/04 07:42:39;;;;;;;22.88;12.07;;;;;;;5.95;88.19;98414.75;4866570;23;20045;-88
2022/01/04 07:45:13;;;;;;;20.65;10.80;;;;;;;6.20;88.63;98436.59;4864082;29;20401;-90
2022/01/04 07:47:43;;;;;;;20.42;10.68;;;;;;;6.57;88.48;98481.22;4864318;29;20049;-91
2022/01/04 07:50:17;;;;;;;19.95;10.55;;;;;;;6.08;88.10;98383.44;4848257;29;20072;-90
2022/01/04 07:52:47;;;;;;;19.02;10.15;;;;;;;6.36;88.59;98433.13;4832757;29;20046;-92
2022/01/04 07:55:22;;;;;;;23.42;10.38;;;;;;;7.03;88.07;98516.50;4847752;29;20094;-93
2022/01/04 07:57:53;;;;;;;21.80;11.38;;;;;;;7.20;88.36;98547.66;4829880;29;20056;-88
2022/01/04 08:00:28;;;;;;;20.35;11.65;;;;;;;7.25;88.53;98548.47;4846338;29;20046;-88
2022/01/04 08:03:14;;;;;;;21.67;12.32;;;;;;;7.26;88.76;98532.41;4845865;29;20503;-89
2022/01/04 08:06:05;;;;;;;24.23;13.25;;;;;;;7.04;88.53;98508.00;4845637;29;20050;-88
2022/01/04 08:08:35;;;;;;;22.33;13.20;;;;;;;6.13;88.40;98338.69;4842961;29;20042;-88
2022/01/04 08:11:05;;;;;;;20.25;11.45;;;;;;;7.03;88.70;98486.06;4829238;29;20064;-89
2022/01/04 08:13:35;;;;;;;22.17;11.68;;;;;;;7.37;88.62;98523.03;4845307;29;20070;-88
2022/01/04 08:16:13;;;;;;;22.00;11.85;;;;;;;6.94;88.35;98471.72;4814572;29;20050;-88
2022/01/04 08:18:43;;;;;;;19.70;10.57;;;;;;;7.36;87.93;98536.59;4831447;29;20106;-89
2022/01/04 08:21:36;;;;;;;20.30;11.93;;;;;;;7.19;88.62;98511.31;4847546;29;20106;-89
2022/01/04 08:24:07;;;;;;;21.23;11.57;;;;;;;7.26;88.58;98514.66;4844065;29;20081;-92
2022/01/04 08:26:37;;;;;;;21.38;11.25;;;;;;;7.38;88.43;98524.72;4847117;29;20107;-85
2022/01/04 08:29:08;;;;;;;16.98;9.68;;;;;;;7.15;88.59;98475.84;4829177;29;20049;-85
2022/01/04 08:31:40;;;;;;;16.40;8.30;;;;;;;7.22;88.80;98482.53;4844907;29;20057;-86
2022/01/04 08:34:10;;;;;;;14.73;8.05;;;;;;;7.25;88.50;98459.66;4812243;29;20053;-86
2022/01/04 08:36:55;;;;;;;14.75;7.80;;;;;;;6.95;88.85;98386.34;4822909;29;20051;-94
2022/01/04 08:39:28;;;;;;;14.90;7.82;;;;;;;7.11;88.56;98403.13;4811688;29;20054;-92
2022/01/04 08:42:01;;;;;;;13.57;7.40;;;;;;;7.02;88.52;98368.53;4819470;29;20141;-92
2022/01/04 08:44:36;;;;;;;15.20;8.23;;;;;;;7.10;88.60;98376.09;4815489;29;20054;-89
2022/01/04 08:47:13;;;;;;;12.93;6.97;;;;;;;7.69;88.15;98470.31;4830881;29;20072;-86
2022/01/04 08:49:48;;;;;;;13.20;7.03;;;;;;;7.58;88.38;98443.34;4841482;29;20118;-91
2022/01/04 08:52:19;;;;;;;15.43;6.63;;;;;;;7.31;88.28;98388.59;4837257;29;20050;-86
2022/01/04 08:54:55;;;;;;;9.88;6.35;;;;;;;8.00;88.30;98504.75;4823611;29;20565;-91
2022/01/04 08:57:30;;;;;;;13.60;6.53;;;;;;;7.22;88.12;98376.00;4837327;29;20058;-84
2022/01/04 09:00:00;;;;;;;11.77;5.22;;;;;;;8.09;88.32;98499.56;4844085;29;20057;-87
2022/01/04 09:02:34;;;;;;;11.88;6.55;;;;;;;7.40;88.12;98380.88;4844375;29;20675;-90
2022/01/04 09:05:13;;;;;;;11.88;6.55;;;;;;;7.72;88.00;98433.91;4826799;29;20080;-86
2022/01/04 09:07:43;;;;;;;11.38;6.65;;;;;;;7.70;88.07;98426.28;4826996;29;20056;-85
2022/01/04 09:10:21;;;;;;;12.20;6.75;;;;;;;8.05;87.90;98486.91;4841441;29;20138;-87
2022/01/04 09:13:00;;;;;;;13.77;6.82;;;;;;;7.61;86.99;98416.22;4826228;29;20134;-86
2022/01/04 09:18:43;;;;;;;11.40;6.60;;;;;;;7.31;87.47;98348.84;4809814;29;20046;-87
2022/01/04 09:19:05;;;;;;;13.20;6.75;;;;;;;7.44;87.94;98372.38;4860581;23;20049;-88
2022/01/04 09:21:39;;;;;;;12.52;6.43;;;;;;;7.71;87.48;98427.97;4840791;29;20045;-84
2022/01/04 09:24:17;;;;;;;15.27;7.47;;;;;;;7.00;87.54;98328.81;4852060;29;20050;-85
2022/01/04 09:27:25;;;;;;;;;;;;;;;8.01;87.79;98493.69;4841774;29;20420;-87
2022/01/04 09:30:28;;;;;;;14.45;7.88;;;;;;;7.23;87.62;98368.34;4846081;29;19928;-89
2022/01/04 09:33:02;;;;;;;14.13;9.23;;;;;;;7.96;87.77;98490.41;4856628;29;20076;-90
2022/01/04 09:35:37;;;;;;;17.17;8.40;;;;;;;7.88;87.43;98482.00;4844185;29;20061;-90
2022/01/04 09:38:09;;;;;;;15.68;9.23;;;;;;;7.10;87.36;98371.00;4843808;29;20140;-90
2022/01/04 09:40:40;;;;;;;15.27;8.55;;;;;;;7.12;87.43;98371.84;4812698;29;20057;-90
2022/01/04 09:43:15;;;;;;;16.55;9.35;;;;;;;7.30;87.17;98399.56;4827736;29;20057;-90
2022/01/04 09:45:47;;;;;;;12.80;7.95;;;;;;;6.74;87.07;98314.63;4827977;29;20054;-89
2022/01/04 09:48:19;;;;;;;13.23;6.68;;;;;;;7.25;87.22;98401.31;4851268;29;20568;-90
2022/01/04 09:50:52;;;;;;;12.52;7.22;;;;;;;7.56;87.33;98445.06;4842588;29;20518;-90
2022/01/04 09:53:26;;;;;;;13.43;6.68;;;;;;;7.70;87.26;98471.97;4853735;29;20058;-90
2022/01/04 09:55:57;;;;;;;11.50;6.57;;;;;;;6.75;86.44;98312.94;4846117;29;20045;-91
2022/01/04 09:58:30;;;;;;;12.27;6.85;;;;;;;6.80;87.04;98305.31;4852913;29;20046;-90
2022/01/04 10:00:59;;;;;;;13.15;6.90;;;;;;;6.64;86.72;98282.63;4851794;29;20056;-90
2022/01/04 10:03:32;;;;;;;11.02;6.05;;;;;;;7.01;87.31;98330.47;4822634;29;20053;-91
2022/01/04 10:06:08;;;;;;;14.25;7.03;;;;;;;7.59;87.15;98401.84;4842251;29;20080;-90
2022/01/04 10:08:55;;;;;;;11.88;6.45;;;;;;;7.06;86.87;98295.78;4843410;29;20213;-89
2022/01/04 10:11:34;;;;;;;12.55;6.82;;;;;;;7.81;86.93;98418.56;4843642;29;20049;-89
2022/01/04 10:14:27;;;;;;;12.20;6.50;;;;;;;7.88;86.31;98433.72;4843279;29;20045;-90
2022/01/04 10:17:00;;;;;;;12.43;6.85;;;;;;;7.36;86.64;98323.41;4827305;29;20506;-86
2022/01/04 10:19:32;;;;;;;12.68;7.10;;;;;;;7.10;86.41;98292.38;4827218;29;20062;-90
2022/01/04 10:22:18;;;;;;;11.73;6.72;;;;;;;7.91;86.88;98421.00;4844055;29;20420;-86
2022/01/04 10:24:51;;;;;;;11.70;6.15;;;;;;;6.77;86.56;98209.84;4843144;29;20103;-87
2022/01/04 10:27:26;;;;;;;12.88;6.90;;;;;;;7.55;86.82;98335.06;4843242;29;20042;-87
2022/01/04 10:30:16;;;;;;;12.25;6.55;;;;;;;7.94;86.73;98387.94;4843573;29;20069;-86
2022/01/04 10:32:49;;;;;;;12.48;6.03;;;;;;;7.62;86.13;98346.81;4843848;29;20066;-86
2022/01/04 10:35:25;;;;;;;12.75;7.20;;;;;;;6.96;86.28;98215.59;4842809;29;20133;-89
2022/01/04 10:38:00;;;;;;;12.77;6.85;;;;;;;7.10;86.25;98221.34;4857957;29;20511;-87
2022/01/04 10:40:31;;;;;;;11.75;6.45;;;;;;;7.30;86.11;98243.09;4848591;29;20488;-90
2022/01/04 10:43:10;;;;;;;11.95;5.88;;;;;;;8.09;85.62;98366.59;4846446;29;20053;-87
2022/01/04 10:45:42;;;;;;;15.35;8.10;;;;;;;7.67;86.46;98286.69;4863005;29;20058;-89
2022/01/04 10:48:22;;;;;;;13.13;7.22;;;;;;;6.91;85.29;98161.53;4861331;29;20045;-90
2022/01/04 10:55:39;;;;;;;11.70;6.43;;;;;;;8.19;85.18;98319.88;4868363;23;20079;-93
2022/01/04 10:58:33;;;;;;;11.45;6.68;;;;;;;8.20;85.31;98323.28;4873961;29;20049;-90
2022/01/04 11:01:24;;;;;;;10.40;5.65;;;;;;;7.09;84.51;98125.81;4865429;29;20053;-93
2022/01/04 11:04:13;;;;;;;10.25;6.35;;;;;;;8.25;84.34;98308.81;4868296;29;20057;-86
2022/01/04 11:06:58;;;;;;;11.60;6.25;;;;;;;7.89;84.80;98213.63;4870359;29;20085;-89
2022/01/04 11:09:46;;;;;;;9.75;5.97;;;;;;;8.47;84.49;98295.78;4870667;29;20025;-94
2022/01/04 11:12:19;;;;;;;8.13;5.65;;;;;;;7.52;84.09;98111.72;4869684;29;20050;-92
2022/01/04 11:14:49;;;;;;;10.32;5.63;;;;;;;8.18;84.12;98215.75;4866264;29;20049;-91
2022/01/04 11:17:20;;;;;;;9.88;5.85;;;;;;;8.34;84.00;98243.47;4866929;29;20045;-91
2022/01/04 11:19:57;;;;;;;11.75;5.82;;;;;;;8.44;84.11;98260.28;4860658;29;20081;-90
2022/01/04 11:22:30;;;;;;;11.63;5.53;;;;;;;8.69;83.60;98284.44;4864981;29;20046;-95
2022/01/04 11:25:04;;;;;;;12.35;5.57;;;;;;;8.38;84.03;98224.75;4863920;29;20461;-90
2022/01/04 11:27:37;;;;;;;9.25;5.35;;;;;;;7.84;83.65;98145.13;4864392;29;20050;-90
2022/01/04 11:30:16;;;;;;;9.57;5.55;;;;;;;7.63;83.40;98130.16;4863613;29;20137;-93
2022/01/04 11:32:49;;;;;;;9.65;5.05;;;;;;;7.70;83.09;98146.16;4863920;29;20057;-94
2022/01/04 11:35:26;;;;;;;11.77;5.43;;;;;;;8.25;83.16;98232.56;4864988;29;20572;-94
2022/01/04 11:38:11;;;;;;;10.23;5.53;;;;;;;7.37;82.99;98089.06;4866088;29;20045;-93
2022/01/04 11:40:54;;;;;;;12.13;5.40;;;;;;;7.97;83.20;98184.69;4886104;24;20053;-89
2022/01/04 11:43:33;;;;;;;9.23;5.22;;;;;;;8.46;83.12;98257.69;4884811;29;20063;-89
2022/01/04 11:46:45;;;;;;;;;;;;;;;;;;;;;
2022/01/04 11:50:24;;;;;;;8.98;5.15;;;;;;;8.46;83.00;98263.63;4892662;29;20059;-87
2022/01/04 11:53:35;;;;;;;10.77;5.82;;;;;;;8.11;83.13;98213.28;4880956;29;20578;-94
2022/01/04 12:03:51;;;;;;;12.23;5.47;;;;;;;7.54;82.69;98091.38;4830974;29;20052;-91
2022/01/04 12:19:02;;;;;;;9.57;5.30;;;;;;;8.18;82.37;98131.88;4867021;29;20113;-93
2022/01/04 12:22:23;;;;;;;13.57;5.68;;;;;;;7.41;82.78;98012.06;4872960;23;20297;-91
2022/01/04 12:31:35;;;;;;;11.05;5.95;;;;;;;8.37;82.12;98154.47;4773952;30;20094;-88
2022/01/04 12:34:07;;;;;;;11.07;6.47;;;;;;;8.26;82.61;98142.75;4747465;30;20146;-85
2022/01/04 12:36:40;;;;;;;11.82;6.40;;;;;;;8.45;82.21;98160.25;4788884;30;20066;-89
2022/01/04 12:39:43;;;;;;;11.98;6.25;;;;;;;8.29;82.67;98127.50;4789228;30;20059;-92
2022/01/04 12:43:15;;;;;;;;;;;;;;;8.37;82.65;98128.22;4752617;30;20052;-91
2022/01/04 12:46:38;;;;;;;11.63;6.05;;;;;;;8.38;83.03;98112.06;4738660;30;20358;-91
2022/01/04 12:53:20;;;;;;;9.23;5.35;;;;;;;7.54;83.31;97983.06;4635237;30;20066;-92
2022/01/04 12:56:21;;;;;;;9.02;4.90;;;;;;;7.51;82.98;97985.66;4715856;24;20053;-95